< < Back
Terminal Aerodrome Forecast


Current Version              Previous Versions:   1  2  3  4  5  6  7  8  9  

Terminal Aerodrome Forecast

841
FTUS44 KHUN 291120
TAFHSV
TAF
KHSV 291120Z 2912/3012 VRB03KT P6SM FEW040 SCT150
     FM291600 30007KT P6SM SCT040 SCT250
     FM300000 VRB03KT P6SM SKC=



Latest METAR

509
SAUS80 KWBC 292100 RRA
MTRHSV
METAR KHSV 292053Z 26006KT 10SM SCT060 31/16 A3006 RMK AO2 SLP170
T03110161 58021


USA.gov is the U.S. government's official web portal to all federal, state and local government web resources and services.